createdAt,value
2022-11-25T00:00:26.282Z,27.80
2022-11-25T00:01:21.142Z,28.40
2022-11-25T00:01:54.575Z,28.10
2022-11-25T00:02:27.752Z,29.90
2022-11-25T00:03:00.981Z,29.20
2022-11-25T00:03:35.609Z,30.60
2022-11-25T00:04:08.769Z,28.60
2022-11-25T00:04:42.067Z,30.70
2022-11-25T00:05:15.527Z,28.80
2022-11-25T00:05:48.935Z,30.60
2022-11-25T00:06:22.093Z,32.90
2022-11-25T00:06:55.146Z,31.50
2022-11-25T00:07:28.341Z,30.10
2022-11-25T00:08:01.511Z,30.20
2022-11-25T00:08:34.524Z,31.70
2022-11-25T00:09:08.689Z,29.10
2022-11-25T00:09:41.650Z,31.70
2022-11-25T00:10:14.963Z,28.90
2022-11-25T00:10:48.168Z,27.10
2022-11-25T00:11:21.413Z,28.60
2022-11-25T00:11:54.523Z,31.40
2022-11-25T00:12:27.821Z,29.50
2022-11-25T00:13:01.201Z,28.70
2022-11-25T00:13:34.942Z,30.60
2022-11-25T00:14:10.721Z,30.20
2022-11-25T00:14:43.768Z,31.80
2022-11-25T00:15:16.918Z,32.20
2022-11-25T00:15:49.973Z,30.60
2022-11-25T00:16:24.694Z,34.80
2022-11-25T00:16:57.809Z,33.50
2022-11-25T00:17:30.918Z,32.60
2022-11-25T00:18:04.118Z,31.30
2022-11-25T00:18:37.185Z,32.70
2022-11-25T00:19:10.346Z,34.80
2022-11-25T00:19:43.347Z,33.60
2022-11-25T00:20:16.651Z,31.70
2022-11-25T00:20:49.781Z,32.20
2022-11-25T00:21:24.373Z,32.30
2022-11-25T00:21:57.630Z,29.70
2022-11-25T00:22:30.724Z,31.70
2022-11-25T00:23:03.877Z,34.20
2022-11-25T00:23:37.710Z,32.10
2022-11-25T00:24:13.096Z,29.20
2022-11-25T00:24:46.278Z,30.70
2022-11-25T00:25:19.541Z,32.20
2022-11-25T00:25:52.694Z,32.60
2022-11-25T00:26:26.413Z,33.40
2022-11-25T00:26:59.659Z,31.70
2022-11-25T00:27:32.830Z,33.30
2022-11-25T00:28:06.153Z,32.20
2022-11-25T00:28:39.675Z,33.80
2022-11-25T00:29:14.465Z,32.50
2022-11-25T00:29:47.821Z,35.40
2022-11-25T00:30:21.048Z,31.70
2022-11-25T00:30:54.059Z,33.20
2022-11-25T00:31:28.240Z,33.60
2022-11-25T00:32:01.562Z,33.40
2022-11-25T00:32:34.681Z,34.30
2022-11-25T00:33:07.826Z,32.30
2022-11-25T00:33:41.332Z,31.70
2022-11-25T00:34:14.926Z,34.10
2022-11-25T00:34:48.266Z,31.10
2022-11-25T00:35:21.667Z,33.60
2022-11-25T00:35:54.845Z,30.30
2022-11-25T00:36:32.101Z,33.40
2022-11-25T00:37:05.207Z,33.70
2022-11-25T00:37:38.242Z,32.90
2022-11-25T00:38:11.412Z,31.50
2022-11-25T00:38:44.880Z,32.20
2022-11-25T00:39:18.735Z,32.30
2022-11-25T00:39:52.224Z,32.00
2022-11-25T00:40:25.691Z,31.60
2022-11-25T00:41:17.247Z,33.40
2022-11-25T00:42:08.971Z,35.20
2022-11-25T00:43:00.748Z,31.80
2022-11-25T00:43:52.424Z,32.60
2022-11-25T00:44:38.408Z,33.10
2022-11-25T00:45:12.267Z,37.90
2022-11-25T00:45:45.360Z,34.60
2022-11-25T00:46:18.655Z,30.30
2022-11-25T00:46:51.935Z,32.90
2022-11-25T00:47:24.999Z,31.20
2022-11-25T00:47:58.376Z,32.70
2022-11-25T00:48:31.618Z,30.60
2022-11-25T00:49:05.048Z,32.90
2022-11-25T00:49:39.494Z,32.10
2022-11-25T00:50:12.615Z,30.10
2022-11-25T00:50:45.788Z,30.30
2022-11-25T00:51:19.123Z,30.10
2022-11-25T00:51:52.199Z,30.90
2022-11-25T00:52:28.223Z,35.70
2022-11-25T00:53:01.327Z,31.90
2022-11-25T00:53:34.553Z,33.10
2022-11-25T00:54:07.647Z,30.90
2022-11-25T00:54:40.927Z,33.10
2022-11-25T00:55:14.520Z,33.10
2022-11-25T00:56:06.306Z,30.90
2022-11-25T00:56:39.961Z,32.70
2022-11-25T00:57:12.974Z,34.60
2022-11-25T00:57:46.040Z,33.90
2022-11-25T00:58:19.119Z,34.50
2022-11-25T00:58:53.184Z,33.40
2022-11-25T00:59:26.443Z,36.50
2022-11-25T00:59:59.638Z,33.10
2022-11-25T01:00:32.725Z,34.80
2022-11-25T01:01:06.231Z,33.40
2022-11-25T01:01:39.753Z,33.50
2022-11-25T01:02:13.753Z,33.90
2022-11-25T01:02:48.471Z,33.10
2022-11-25T01:03:21.631Z,32.70
2022-11-25T01:03:54.772Z,33.00
2022-11-25T01:04:27.937Z,31.80
2022-11-25T01:05:01.016Z,32.50
2022-11-25T01:05:34.155Z,32.30
2022-11-25T01:06:08.526Z,34.50
2022-11-25T01:06:41.715Z,35.00
2022-11-25T01:07:15.655Z,33.90
2022-11-25T01:07:49.069Z,35.70
2022-11-25T01:08:22.507Z,34.40
2022-11-25T01:08:55.669Z,33.20
2022-11-25T01:09:28.914Z,34.30
2022-11-25T01:10:02.194Z,32.90
2022-11-25T01:10:35.382Z,36.30
2022-11-25T01:11:11.016Z,34.20
2022-11-25T01:11:44.138Z,37.30
2022-11-25T01:12:17.814Z,35.70
2022-11-25T01:12:51.083Z,34.20
2022-11-25T01:13:24.275Z,34.40
2022-11-25T01:14:01.462Z,36.10
2022-11-25T01:14:35.569Z,35.00
2022-11-25T01:15:09.351Z,34.20
2022-11-25T01:15:42.580Z,35.90
2022-11-25T01:16:17.659Z,34.30
2022-11-25T01:16:51.086Z,35.70
2022-11-25T01:17:24.200Z,37.80
2022-11-25T01:17:57.311Z,33.50
2022-11-25T01:18:30.741Z,35.70
2022-11-25T01:19:04.549Z,37.30
2022-11-25T01:19:40.809Z,36.90
2022-11-25T01:20:15.948Z,32.70
2022-11-25T01:20:48.955Z,34.30
2022-11-25T01:21:23.236Z,34.50
2022-11-25T01:21:56.402Z,37.10
2022-11-25T01:22:29.526Z,36.20
2022-11-25T01:23:02.565Z,39.20
2022-11-25T01:23:36.115Z,37.40
2022-11-25T01:24:12.167Z,36.80
2022-11-25T01:24:45.326Z,37.70
2022-11-25T01:25:18.447Z,40.00
2022-11-25T01:25:51.511Z,39.10
2022-11-25T01:26:25.434Z,39.30
2022-11-25T01:26:58.941Z,39.20
2022-11-25T01:27:32.215Z,35.20
2022-11-25T01:28:05.652Z,36.50
2022-11-25T01:28:39.205Z,37.10
2022-11-25T01:29:13.460Z,36.20
2022-11-25T01:29:46.451Z,37.40
2022-11-25T01:30:19.461Z,38.00
2022-11-25T01:31:02.707Z,37.10
2022-11-25T01:31:36.878Z,34.80
2022-11-25T01:32:10.186Z,36.20
2022-11-25T01:32:43.457Z,36.90
2022-11-25T01:33:17.710Z,36.10
2022-11-25T01:33:58.211Z,38.10
2022-11-25T01:34:32.811Z,38.10
2022-11-25T01:35:06.230Z,38.50
2022-11-25T01:35:39.498Z,38.70
2022-11-25T01:36:14.076Z,38.70
2022-11-25T01:36:47.788Z,37.60
2022-11-25T01:37:20.972Z,43.60
2022-11-25T01:37:54.141Z,40.20
2022-11-25T01:38:27.541Z,37.90
2022-11-25T01:39:01.119Z,41.70
2022-11-25T01:39:34.182Z,38.40
2022-11-25T01:40:07.821Z,38.80
2022-11-25T01:40:40.895Z,34.60
2022-11-25T01:41:14.862Z,39.90
2022-11-25T01:41:48.731Z,38.90
2022-11-25T01:42:21.986Z,38.00
2022-11-25T01:42:55.210Z,37.20
2022-11-25T01:43:28.520Z,34.90
2022-11-25T01:44:09.636Z,37.90
2022-11-25T01:44:43.499Z,36.20
2022-11-25T01:45:24.527Z,39.00
2022-11-25T01:46:11.239Z,38.80
2022-11-25T01:47:03.235Z,36.10
2022-11-25T01:47:36.403Z,38.00
2022-11-25T01:48:12.885Z,39.40
2022-11-25T01:48:50.397Z,42.70
2022-11-25T01:49:32.373Z,39.60
2022-11-25T01:50:09.992Z,37.10
2022-11-25T01:50:43.996Z,39.30
2022-11-25T01:51:27.774Z,37.30
2022-11-25T01:52:10.278Z,38.50
2022-11-25T01:52:46.364Z,39.30
2022-11-25T01:53:20.857Z,38.60
2022-11-25T01:53:56.294Z,41.50
2022-11-25T01:54:31.177Z,39.70
2022-11-25T01:55:11.225Z,39.00
2022-11-25T01:55:48.246Z,38.20
2022-11-25T01:56:22.338Z,36.90
2022-11-25T01:57:04.104Z,37.60
2022-11-25T01:57:56.174Z,37.90
2022-11-25T01:58:31.567Z,34.20
2022-11-25T01:59:04.932Z,38.60
2022-11-25T01:59:40.418Z,37.00
2022-11-25T02:00:14.147Z,35.40
2022-11-25T02:00:51.620Z,32.80
2022-11-25T02:01:24.920Z,36.10
2022-11-25T02:01:59.563Z,38.40
2022-11-25T02:02:32.798Z,36.40
2022-11-25T02:03:08.120Z,38.20
2022-11-25T02:03:43.379Z,36.10
2022-11-25T02:04:17.384Z,35.30
2022-11-25T02:04:55.399Z,36.90
2022-11-25T02:05:40.656Z,36.60
2022-11-25T02:06:22.973Z,38.30
2022-11-25T02:06:59.990Z,39.70
2022-11-25T02:07:35.339Z,38.80
2022-11-25T02:08:08.994Z,37.80
2022-11-25T02:08:43.808Z,37.20
2022-11-25T02:09:18.194Z,39.00
2022-11-25T02:09:51.271Z,39.60
2022-11-25T02:10:29.988Z,33.60
2022-11-25T02:11:06.339Z,36.00
2022-11-25T02:11:40.838Z,37.60
2022-11-25T02:12:14.582Z,35.90
2022-11-25T02:12:48.187Z,33.70
2022-11-25T02:13:22.257Z,36.60
2022-11-25T02:13:55.316Z,36.90
2022-11-25T02:14:28.438Z,34.70
2022-11-25T02:15:01.874Z,36.90
2022-11-25T02:15:35.579Z,35.20
2022-11-25T02:16:09.025Z,35.20
2022-11-25T02:16:42.189Z,34.50
2022-11-25T02:17:15.502Z,36.80
2022-11-25T02:17:50.502Z,34.40
2022-11-25T02:18:23.821Z,35.30
2022-11-25T02:18:56.888Z,37.80
2022-11-25T02:19:35.109Z,38.20
2022-11-25T02:20:09.990Z,39.00
2022-11-25T02:20:43.126Z,36.10
2022-11-25T02:21:22.358Z,37.30
2022-11-25T02:22:00.320Z,36.30
2022-11-25T02:22:33.515Z,34.60
2022-11-25T02:23:12.519Z,39.50
2022-11-25T02:23:51.585Z,36.20
2022-11-25T02:24:40.109Z,34.70
2022-11-25T02:25:16.558Z,38.00
2022-11-25T02:25:49.874Z,33.00
2022-11-25T02:26:23.007Z,33.00
2022-11-25T02:26:56.288Z,37.60
2022-11-25T02:27:29.436Z,37.60
2022-11-25T02:28:07.928Z,37.60
2022-11-25T02:28:41.091Z,38.40
2022-11-25T02:29:14.293Z,36.60
2022-11-25T02:29:47.816Z,36.80
2022-11-25T02:30:21.092Z,32.30
2022-11-25T02:30:54.424Z,35.00
2022-11-25T02:31:27.505Z,34.70
2022-11-25T02:32:00.833Z,36.90
2022-11-25T02:32:33.941Z,34.00
2022-11-25T02:33:07.179Z,35.50
2022-11-25T02:33:40.378Z,36.60
2022-11-25T02:34:13.553Z,40.90
2022-11-25T02:34:47.961Z,36.40
2022-11-25T02:35:28.957Z,38.20
2022-11-25T02:36:36.275Z,35.20
2022-11-25T02:37:09.378Z,33.20
2022-11-25T02:37:42.461Z,33.20
2022-11-25T02:38:20.996Z,35.20
2022-11-25T02:38:56.114Z,34.70
2022-11-25T02:39:29.339Z,29.20
2022-11-25T02:40:03.039Z,30.90
2022-11-25T02:40:50.460Z,30.50
2022-11-25T02:41:33.736Z,30.80
2022-11-25T02:42:07.190Z,26.10
2022-11-25T02:42:41.283Z,28.50
2022-11-25T02:43:14.395Z,26.60
2022-11-25T02:43:47.479Z,29.20
2022-11-25T02:44:20.860Z,26.00
2022-11-25T02:44:53.968Z,25.90
2022-11-25T02:45:33.156Z,25.90
2022-11-25T02:46:11.210Z,29.30
2022-11-25T02:46:44.534Z,27.20
2022-11-25T02:47:18.228Z,29.70
2022-11-25T02:47:51.601Z,26.10
2022-11-25T02:48:45.717Z,28.50
2022-11-25T02:49:18.660Z,26.90
2022-11-25T02:49:51.874Z,27.20
2022-11-25T02:50:25.703Z,26.20
2022-11-25T02:50:58.816Z,27.90
2022-11-25T02:51:32.335Z,25.50
2022-11-25T02:52:05.377Z,27.40
2022-11-25T02:52:38.514Z,24.40
2022-11-25T02:53:11.738Z,24.70
2022-11-25T02:53:45.424Z,24.80
2022-11-25T02:54:18.842Z,27.00
2022-11-25T02:54:52.021Z,25.10
2022-11-25T02:55:25.249Z,27.80
2022-11-25T02:55:58.552Z,25.50
2022-11-25T02:56:34.100Z,25.90
2022-11-25T02:57:07.211Z,27.00
2022-11-25T02:57:40.355Z,26.90
2022-11-25T02:58:13.733Z,26.10
2022-11-25T02:58:46.802Z,27.00
2022-11-25T02:59:19.970Z,28.10
2022-11-25T02:59:53.245Z,28.40
2022-11-25T03:00:26.374Z,27.60
2022-11-25T03:00:59.583Z,27.50
2022-11-25T03:01:33.111Z,24.60
2022-11-25T03:02:06.300Z,27.60
2022-11-25T03:02:39.934Z,27.60
2022-11-25T03:03:13.541Z,27.10
2022-11-25T03:03:46.832Z,27.40
2022-11-25T03:04:19.972Z,27.60
2022-11-25T03:04:53.019Z,24.70
2022-11-25T03:05:26.117Z,28.40
2022-11-25T03:05:59.235Z,26.40
2022-11-25T03:06:32.414Z,27.90
2022-11-25T03:07:05.544Z,27.50
2022-11-25T03:07:38.788Z,29.50
2022-11-25T03:08:12.215Z,29.90
2022-11-25T03:08:45.462Z,27.60
2022-11-25T03:09:18.587Z,28.50
2022-11-25T03:09:51.979Z,26.10
2022-11-25T03:10:25.192Z,28.90
2022-11-25T03:10:58.239Z,27.30
2022-11-25T03:11:49.706Z,26.50
2022-11-25T03:12:23.066Z,28.50
2022-11-25T03:12:56.227Z,26.00
2022-11-25T03:13:29.425Z,31.30
2022-11-25T03:14:02.518Z,28.80
2022-11-25T03:14:35.926Z,28.10
2022-11-25T03:15:09.522Z,29.30
2022-11-25T03:15:42.603Z,27.80
2022-11-25T03:16:15.838Z,28.00
2022-11-25T03:16:49.019Z,28.00
2022-11-25T03:17:22.194Z,29.30
2022-11-25T03:17:55.632Z,27.10
2022-11-25T03:18:28.632Z,25.70
2022-11-25T03:19:01.798Z,27.70
2022-11-25T03:19:34.859Z,27.40
2022-11-25T03:20:08.504Z,26.80
2022-11-25T03:20:41.603Z,25.40
2022-11-25T03:21:14.750Z,25.50
2022-11-25T03:21:47.929Z,28.40
2022-11-25T03:22:21.105Z,30.30
2022-11-25T03:22:54.196Z,29.40
2022-11-25T03:23:27.393Z,27.20
2022-11-25T03:24:00.610Z,29.80
2022-11-25T03:24:33.861Z,32.10
2022-11-25T03:25:07.509Z,31.80
2022-11-25T03:25:40.639Z,29.00
2022-11-25T03:26:13.663Z,27.80
2022-11-25T03:26:46.834Z,28.70
2022-11-25T03:27:20.153Z,29.90
2022-11-25T03:27:53.546Z,29.30
2022-11-25T03:28:26.858Z,29.20
2022-11-25T03:29:00.257Z,30.00
2022-11-25T03:29:33.543Z,31.00
2022-11-25T03:30:08.331Z,27.30
2022-11-25T03:30:41.508Z,28.50
2022-11-25T03:31:14.619Z,28.40
2022-11-25T03:31:47.823Z,29.30
2022-11-25T03:32:20.979Z,28.60
2022-11-25T03:32:54.159Z,28.50
2022-11-25T03:33:27.121Z,29.30
2022-11-25T03:34:00.193Z,27.40
2022-11-25T03:34:33.326Z,29.90
2022-11-25T03:35:06.706Z,27.70
2022-11-25T03:35:39.736Z,26.70
2022-11-25T03:36:13.103Z,26.20
2022-11-25T03:36:46.388Z,24.90
2022-11-25T03:37:20.420Z,25.20
2022-11-25T03:37:53.722Z,26.50
2022-11-25T03:38:26.975Z,25.10
2022-11-25T03:39:00.100Z,28.40
2022-11-25T03:39:33.374Z,25.40
2022-11-25T03:40:07.176Z,27.20
2022-11-25T03:40:40.367Z,26.40
2022-11-25T03:41:13.508Z,25.50
2022-11-25T03:41:46.537Z,22.80
2022-11-25T03:42:19.685Z,25.00
2022-11-25T03:42:52.802Z,25.80
2022-11-25T03:43:25.853Z,23.20
2022-11-25T03:43:59.124Z,23.50
2022-11-25T03:44:32.329Z,23.10
2022-11-25T03:45:06.391Z,22.50
2022-11-25T03:45:39.581Z,22.20
2022-11-25T03:46:12.811Z,24.20
2022-11-25T03:46:46.038Z,24.80
2022-11-25T03:47:19.070Z,27.00
2022-11-25T03:47:52.242Z,24.30
2022-11-25T03:48:25.441Z,27.50
2022-11-25T03:48:58.626Z,27.80
2022-11-25T03:49:31.843Z,25.20
2022-11-25T03:50:05.329Z,23.60
2022-11-25T03:50:38.560Z,24.90
2022-11-25T03:51:11.765Z,26.60
2022-11-25T03:51:45.210Z,22.50
2022-11-25T03:52:18.331Z,24.50
2022-11-25T03:52:51.337Z,22.00
2022-11-25T03:53:24.431Z,23.80
2022-11-25T03:53:57.500Z,24.80
2022-11-25T03:54:30.633Z,20.30
2022-11-25T03:55:04.027Z,22.00
2022-11-25T03:55:37.116Z,21.50
2022-11-25T03:56:10.171Z,19.60
2022-11-25T03:56:43.267Z,18.30
2022-11-25T03:57:17.063Z,20.90
2022-11-25T03:57:50.133Z,19.80
2022-11-25T03:58:23.211Z,19.60
2022-11-25T03:58:56.282Z,22.10
2022-11-25T03:59:29.373Z,21.80
2022-11-25T04:00:02.588Z,20.90
2022-11-25T04:00:35.945Z,19.60
2022-11-25T04:01:09.110Z,19.90
2022-11-25T04:01:44.472Z,20.50
2022-11-25T04:02:17.848Z,19.90
2022-11-25T04:02:51.086Z,20.80
2022-11-25T04:03:24.282Z,20.10
2022-11-25T04:03:57.457Z,19.30
2022-11-25T04:04:30.757Z,21.10
2022-11-25T04:05:05.673Z,21.60
2022-11-25T04:05:38.789Z,20.80
2022-11-25T04:06:11.882Z,19.20
2022-11-25T04:06:44.912Z,20.40
2022-11-25T04:07:18.304Z,18.90
2022-11-25T04:07:57.533Z,22.00
2022-11-25T04:08:31.113Z,17.10
2022-11-25T04:09:04.157Z,18.40
2022-11-25T04:09:37.359Z,17.40
2022-11-25T04:10:10.641Z,18.70
2022-11-25T04:10:43.712Z,19.50
2022-11-25T04:11:17.092Z,20.20
2022-11-25T04:12:09.252Z,18.40
2022-11-25T04:12:47.497Z,17.90
2022-11-25T04:13:20.565Z,19.60
2022-11-25T04:13:53.628Z,20.60
2022-11-25T04:14:26.726Z,20.30
2022-11-25T04:14:59.762Z,17.50
2022-11-25T04:15:32.816Z,19.00
2022-11-25T04:16:06.062Z,17.50
2022-11-25T04:16:39.108Z,19.50
2022-11-25T04:17:12.198Z,18.40
2022-11-25T04:17:45.422Z,18.70
2022-11-25T04:18:19.244Z,18.30
2022-11-25T04:18:52.308Z,20.50
2022-11-25T04:19:25.370Z,17.60
2022-11-25T04:19:58.472Z,19.40
2022-11-25T04:20:31.505Z,20.10
2022-11-25T04:21:04.645Z,18.90
2022-11-25T04:21:37.718Z,17.20
2022-11-25T04:22:11.055Z,14.60
2022-11-25T04:22:44.217Z,20.00
2022-11-25T04:23:17.469Z,17.20
2022-11-25T04:23:50.568Z,19.90
2022-11-25T04:24:23.703Z,17.50
2022-11-25T04:24:56.941Z,17.90
2022-11-25T04:25:30.361Z,18.20
2022-11-25T04:26:03.429Z,18.60
2022-11-25T04:26:36.475Z,17.50
2022-11-25T04:27:09.602Z,19.10
2022-11-25T04:27:42.645Z,18.00
2022-11-25T04:28:15.787Z,17.20
2022-11-25T04:28:48.867Z,18.70
2022-11-25T04:29:22.044Z,17.50
2022-11-25T04:29:55.141Z,20.30
2022-11-25T04:30:28.350Z,17.90
2022-11-25T04:31:05.823Z,18.40
2022-11-25T04:31:39.169Z,15.70
2022-11-25T04:32:12.211Z,19.70
2022-11-25T04:32:45.396Z,19.90
2022-11-25T04:33:18.498Z,17.50
2022-11-25T04:33:52.804Z,18.20
2022-11-25T04:34:26.190Z,18.20
2022-11-25T04:34:59.248Z,16.10
2022-11-25T04:35:32.402Z,18.10
2022-11-25T04:36:05.647Z,17.90
2022-11-25T04:36:38.989Z,18.40
2022-11-25T04:37:11.904Z,17.00
2022-11-25T04:37:44.938Z,18.90
2022-11-25T04:38:18.167Z,19.10
2022-11-25T04:38:52.042Z,18.30
2022-11-25T04:39:25.098Z,22.10
2022-11-25T04:39:58.282Z,18.10
2022-11-25T04:40:31.450Z,17.30
2022-11-25T04:41:04.530Z,19.70
2022-11-25T04:41:37.743Z,17.70
2022-11-25T04:42:29.155Z,18.90
2022-11-25T04:43:06.203Z,18.50
2022-11-25T04:43:42.501Z,19.10
2022-11-25T04:44:15.518Z,16.00
2022-11-25T04:45:01.319Z,24.00
2022-11-25T04:46:37.754Z,21.70
2022-11-25T04:47:10.902Z,21.50
2022-11-25T04:47:44.807Z,20.70
2022-11-25T04:48:18.435Z,19.00
2022-11-25T04:48:51.632Z,19.80
2022-11-25T04:49:24.728Z,19.40
2022-11-25T04:49:57.902Z,20.10
2022-11-25T04:50:31.275Z,18.90
2022-11-25T04:51:04.598Z,17.80
2022-11-25T04:51:37.650Z,17.70
2022-11-25T04:52:10.677Z,19.60
2022-11-25T04:52:43.863Z,19.20
2022-11-25T04:53:17.227Z,18.80
2022-11-25T04:53:50.497Z,18.30
2022-11-25T04:54:23.856Z,20.20
2022-11-25T04:54:57.077Z,17.70
2022-11-25T04:55:30.109Z,16.70
2022-11-25T04:56:03.283Z,20.30
2022-11-25T04:56:36.453Z,18.00
2022-11-25T04:57:12.966Z,16.60
2022-11-25T04:57:46.053Z,15.60
2022-11-25T04:58:39.093Z,17.10
2022-11-25T04:59:30.824Z,14.70
2022-11-25T05:00:04.523Z,16.10
2022-11-25T05:00:37.842Z,15.60
2022-11-25T05:01:10.996Z,15.10
2022-11-25T05:01:44.287Z,15.80
2022-11-25T05:02:21.895Z,15.20
2022-11-25T05:02:55.180Z,16.10
2022-11-25T05:03:28.373Z,15.00
2022-11-25T05:04:01.591Z,13.50
2022-11-25T05:04:35.024Z,16.90
2022-11-25T05:05:08.478Z,16.30
2022-11-25T05:05:41.598Z,15.40
2022-11-25T05:06:14.754Z,15.20
2022-11-25T05:06:47.842Z,15.60
2022-11-25T05:07:22.099Z,16.10
2022-11-25T05:07:55.404Z,15.00
2022-11-25T05:08:28.547Z,14.90
2022-11-25T05:09:01.685Z,15.40
2022-11-25T05:09:34.979Z,16.00
2022-11-25T05:10:08.315Z,14.10
2022-11-25T05:10:41.518Z,14.10
2022-11-25T05:11:14.894Z,14.00
2022-11-25T05:11:48.018Z,16.30
2022-11-25T05:12:23.002Z,13.60
2022-11-25T05:12:56.146Z,16.30
2022-11-25T05:13:29.332Z,14.30
2022-11-25T05:14:02.445Z,14.60
2022-11-25T05:14:36.183Z,14.40
2022-11-25T05:15:09.869Z,14.10
2022-11-25T05:15:44.415Z,13.20
2022-11-25T05:16:18.422Z,14.40
2022-11-25T05:16:52.250Z,13.60
2022-11-25T05:17:27.578Z,13.70
2022-11-25T05:18:00.680Z,14.60
2022-11-25T05:18:33.875Z,12.80
2022-11-25T05:19:07.020Z,15.60
2022-11-25T05:19:40.472Z,15.30
2022-11-25T05:20:13.848Z,16.30
2022-11-25T05:20:46.929Z,14.80
2022-11-25T05:21:20.285Z,17.20
2022-11-25T05:21:53.353Z,14.40
2022-11-25T05:22:30.677Z,14.90
2022-11-25T05:23:03.796Z,17.40
2022-11-25T05:23:36.985Z,14.30
2022-11-25T05:24:10.055Z,14.90
2022-11-25T05:24:43.299Z,15.00
2022-11-25T05:25:17.261Z,14.80
2022-11-25T05:25:50.290Z,14.20
2022-11-25T05:26:23.389Z,15.20
2022-11-25T05:26:56.450Z,16.30
2022-11-25T05:27:29.590Z,16.30
2022-11-25T05:28:02.577Z,16.90
2022-11-25T05:28:35.569Z,15.70
2022-11-25T05:29:09.462Z,16.40
2022-11-25T05:29:42.737Z,17.10
2022-11-25T05:30:15.850Z,18.00
2022-11-25T05:30:48.980Z,18.40
2022-11-25T05:31:22.200Z,20.80
2022-11-25T05:31:55.376Z,19.20
2022-11-25T05:32:28.447Z,19.10
2022-11-25T05:33:01.463Z,16.90
2022-11-25T05:33:34.562Z,18.70
2022-11-25T05:34:07.799Z,16.30
2022-11-25T05:34:41.491Z,18.20
2022-11-25T05:35:14.686Z,16.80
2022-11-25T05:35:54.920Z,18.10
2022-11-25T05:36:28.688Z,17.40
2022-11-25T05:37:02.032Z,17.40
2022-11-25T05:37:35.354Z,18.10
2022-11-25T05:38:08.547Z,16.90
2022-11-25T05:38:41.795Z,17.00
2022-11-25T05:39:15.227Z,18.90
2022-11-25T05:39:48.342Z,18.40
2022-11-25T05:40:21.479Z,17.40
2022-11-25T05:41:00.074Z,20.00
2022-11-25T05:41:33.051Z,17.00
2022-11-25T05:42:06.073Z,17.60
2022-11-25T05:42:39.157Z,17.10
2022-11-25T05:43:12.501Z,19.10
2022-11-25T05:43:47.274Z,18.70
2022-11-25T05:44:23.064Z,19.00
2022-11-25T05:44:56.340Z,19.60
2022-11-25T05:45:29.449Z,19.20
2022-11-25T05:46:09.185Z,18.00
2022-11-25T05:46:44.749Z,18.30
2022-11-25T05:47:17.970Z,20.90
2022-11-25T05:47:51.070Z,20.40
2022-11-25T05:48:24.320Z,18.50
2022-11-25T05:48:57.669Z,20.40
2022-11-25T05:49:30.940Z,20.60
2022-11-25T05:50:04.139Z,20.80
2022-11-25T05:50:38.018Z,18.80
2022-11-25T05:51:11.104Z,18.70
2022-11-25T05:51:44.234Z,19.10
2022-11-25T05:52:17.261Z,19.90
2022-11-25T05:52:50.233Z,19.10
2022-11-25T05:53:23.369Z,17.80
2022-11-25T05:53:57.168Z,20.30
2022-11-25T05:54:30.363Z,19.60
2022-11-25T05:55:03.560Z,19.00
2022-11-25T05:55:36.866Z,21.50
2022-11-25T05:56:10.480Z,21.90
2022-11-25T05:56:43.506Z,19.90
2022-11-25T05:57:16.603Z,20.20
2022-11-25T05:57:49.695Z,18.40
2022-11-25T05:58:23.311Z,21.00
2022-11-25T05:58:56.684Z,20.30
2022-11-25T05:59:29.774Z,20.10
2022-11-25T06:00:03.039Z,22.40
2022-11-25T06:00:36.358Z,19.20
2022-11-25T06:01:11.066Z,20.60
2022-11-25T06:01:44.317Z,22.30
2022-11-25T06:02:17.707Z,22.90
2022-11-25T06:02:51.618Z,19.70
2022-11-25T06:03:26.253Z,19.60
2022-11-25T06:04:00.166Z,21.30
2022-11-25T06:04:33.493Z,19.80
2022-11-25T06:05:07.030Z,17.60
2022-11-25T06:05:41.437Z,19.10
2022-11-25T06:06:14.620Z,17.50
2022-11-25T06:06:47.901Z,18.30
2022-11-25T06:07:21.132Z,18.90
2022-11-25T06:07:55.012Z,19.60
2022-11-25T06:08:28.814Z,19.50
2022-11-25T06:09:02.243Z,19.40
2022-11-25T06:09:35.926Z,20.20
2022-11-25T06:10:09.366Z,21.70
2022-11-25T06:10:42.831Z,22.70
2022-11-25T06:11:17.261Z,24.10
2022-11-25T06:11:50.383Z,20.50
2022-11-25T06:12:23.880Z,22.30
2022-11-25T06:12:57.524Z,35.00
2022-11-25T06:13:31.428Z,36.10
2022-11-25T06:14:04.495Z,38.70
2022-11-25T06:14:37.808Z,35.70
2022-11-25T06:15:12.287Z,38.40
2022-11-25T06:15:46.344Z,38.50
2022-11-25T06:16:21.607Z,44.70
2022-11-25T06:16:55.125Z,40.70
2022-11-25T06:17:28.668Z,45.90
2022-11-25T06:18:02.035Z,50.70
2022-11-25T06:18:36.196Z,50.90
2022-11-25T06:19:09.394Z,51.70
2022-11-25T06:19:42.634Z,56.50
2022-11-25T06:20:15.713Z,52.30
2022-11-25T06:20:56.487Z,53.40
2022-11-25T06:22:22.298Z,46.70
2022-11-25T06:22:55.522Z,47.90
2022-11-25T06:23:28.573Z,45.40
2022-11-25T06:24:01.751Z,40.10
2022-11-25T06:24:35.043Z,39.00
2022-11-25T06:25:09.097Z,34.20
2022-11-25T06:25:42.268Z,29.80
2022-11-25T06:26:15.444Z,32.10
2022-11-25T06:26:48.919Z,31.70
2022-11-25T06:27:21.991Z,26.60
2022-11-25T06:28:12.303Z,30.20
2022-11-25T06:28:46.215Z,24.70
2022-11-25T06:29:19.350Z,24.30
2022-11-25T06:29:52.413Z,25.70
2022-11-25T06:30:25.912Z,25.00
2022-11-25T06:31:04.552Z,22.90
2022-11-25T06:31:37.727Z,24.30
2022-11-25T06:32:10.917Z,24.80
2022-11-25T06:32:44.216Z,23.30
2022-11-25T06:33:18.514Z,24.70
2022-11-25T06:33:52.290Z,21.10
2022-11-25T06:34:25.410Z,21.90
2022-11-25T06:34:58.492Z,21.40
2022-11-25T06:35:32.030Z,25.90
2022-11-25T06:36:06.793Z,23.90
2022-11-25T06:36:39.857Z,27.30
2022-11-25T06:37:13.201Z,23.00
2022-11-25T06:37:46.432Z,25.40
2022-11-25T06:38:19.433Z,25.80
2022-11-25T06:38:53.864Z,23.90
2022-11-25T06:39:27.651Z,23.10
2022-11-25T06:40:01.564Z,27.80
2022-11-25T06:40:34.767Z,25.20
2022-11-25T06:41:07.914Z,23.40
2022-11-25T06:41:41.014Z,24.50
2022-11-25T06:42:14.259Z,24.50
2022-11-25T06:42:47.463Z,24.10
2022-11-25T06:43:20.586Z,23.10
2022-11-25T06:43:53.840Z,21.10
2022-11-25T06:44:27.065Z,23.80
2022-11-25T06:45:00.225Z,24.20
2022-11-25T06:45:33.773Z,25.70
2022-11-25T06:46:10.955Z,22.70
2022-11-25T06:46:44.310Z,23.30
2022-11-25T06:47:17.442Z,24.90
2022-11-25T06:47:50.621Z,25.80
2022-11-25T06:48:24.023Z,28.30
2022-11-25T06:48:59.284Z,25.70
2022-11-25T06:49:32.991Z,24.90
2022-11-25T06:50:06.720Z,24.00
2022-11-25T06:50:39.905Z,26.50
2022-11-25T06:51:14.162Z,25.60
2022-11-25T06:51:49.176Z,25.90
2022-11-25T06:52:22.646Z,25.80
2022-11-25T06:52:55.692Z,25.10
2022-11-25T06:53:28.915Z,24.60
2022-11-25T06:54:01.995Z,25.30
2022-11-25T06:54:35.686Z,35.60
2022-11-25T06:55:09.210Z,33.70
2022-11-25T06:55:42.682Z,31.40
2022-11-25T06:56:20.388Z,28.00
2022-11-25T06:56:54.160Z,26.70
2022-11-25T06:57:27.291Z,25.50
2022-11-25T06:58:20.524Z,24.30
2022-11-25T06:58:53.930Z,25.50
2022-11-25T06:59:27.016Z,23.20
2022-11-25T07:00:00.292Z,23.90
2022-11-25T07:00:33.587Z,22.90
2022-11-25T07:01:08.543Z,23.50
2022-11-25T07:01:41.789Z,24.80
2022-11-25T07:02:15.165Z,23.50
2022-11-25T07:02:49.037Z,24.10
2022-11-25T07:03:22.637Z,23.80
2022-11-25T07:03:59.968Z,23.20
2022-11-25T07:04:34.759Z,21.80
2022-11-25T07:05:08.402Z,23.00
2022-11-25T07:05:41.459Z,22.30
2022-11-25T07:06:15.536Z,22.70
2022-11-25T07:06:49.391Z,24.30
2022-11-25T07:07:22.431Z,19.50
2022-11-25T07:07:55.770Z,21.40
2022-11-25T07:08:33.698Z,22.10
2022-11-25T07:09:07.650Z,21.10
2022-11-25T07:09:40.764Z,21.30
2022-11-25T07:10:13.993Z,22.20
2022-11-25T07:10:47.020Z,22.50
2022-11-25T07:11:22.267Z,22.80
2022-11-25T07:11:55.439Z,20.50
2022-11-25T07:12:28.547Z,22.60
2022-11-25T07:13:01.818Z,23.00
2022-11-25T07:13:35.098Z,23.30
2022-11-25T07:14:11.071Z,22.10
2022-11-25T07:14:44.211Z,25.70
2022-11-25T07:15:17.604Z,22.80
2022-11-25T07:15:50.870Z,23.70
2022-11-25T07:16:24.280Z,23.20
2022-11-25T07:16:57.476Z,24.70
2022-11-25T07:17:30.700Z,25.00
2022-11-25T07:18:03.897Z,22.80
2022-11-25T07:18:37.848Z,24.80
2022-11-25T07:19:12.319Z,24.30
2022-11-25T07:19:45.847Z,24.40
2022-11-25T07:20:19.090Z,23.30
2022-11-25T07:20:52.128Z,23.20
2022-11-25T07:21:25.788Z,23.30
2022-11-25T07:21:59.256Z,22.20
2022-11-25T07:22:32.405Z,23.90
2022-11-25T07:23:05.684Z,26.30
2022-11-25T07:23:38.827Z,24.70
2022-11-25T07:24:13.336Z,24.60